Time;durP1;ratioP1;P1;durP2;ratioP2;P2;SDS_P1;SDS_P2;PMS_P1;PMS_P2;Temp;Humidity;BMP_temperature;BMP_pressure;BME280_temperature;BME280_humidity;BME280_pressure;Samples;Min_cycle;Max_cycle;Signal;HPM_P1;HPM_P2
2023/02/25 00:00:16;;;;;;;23.42;12.25;;;;;;;2.40;100.00;99998.91;5031541;28;20033;-73
2023/02/25 00:02:42;;;;;;;19.38;11.00;;;;;;;2.38;100.00;99990.09;5054277;28;20040;-74
2023/02/25 00:05:08;;;;;;;18.10;11.13;;;;;;;2.37;100.00;99997.47;5017729;28;20026;-73
2023/02/25 00:07:33;;;;;;;19.60;10.70;;;;;;;2.33;100.00;99990.84;5018693;28;20254;-73
2023/02/25 00:09:59;;;;;;;19.10;11.48;;;;;;;2.34;100.00;99994.41;5019544;28;20044;-73
2023/02/25 00:12:24;;;;;;;22.88;11.70;;;;;;;2.37;100.00;100008.44;5040059;28;20030;-74
2023/02/25 00:14:50;;;;;;;18.83;11.00;;;;;;;2.32;100.00;100000.16;5043759;28;20063;-74
2023/02/25 00:17:15;;;;;;;19.80;11.52;;;;;;;2.27;100.00;100007.47;5023486;28;20021;-73
2023/02/25 00:19:41;;;;;;;20.13;10.27;;;;;;;2.28;100.00;100007.19;5043749;28;20540;-73
2023/02/25 00:22:06;;;;;;;20.25;11.35;;;;;;;2.29;100.00;100006.13;5015539;28;20029;-73
2023/02/25 00:24:31;;;;;;;18.73;11.27;;;;;;;2.30;100.00;100009.69;5060238;28;20025;-73
2023/02/25 00:26:57;;;;;;;23.45;11.88;;;;;;;2.31;100.00;100017.66;5023232;28;20505;-73
2023/02/25 00:29:22;;;;;;;21.75;11.85;;;;;;;2.28;100.00;100014.59;5043376;28;20036;-74
2023/02/25 00:31:48;;;;;;;18.90;11.70;;;;;;;2.28;100.00;100012.69;5017758;28;20025;-73
2023/02/25 00:34:13;;;;;;;18.52;11.30;;;;;;;2.27;100.00;100012.94;5007281;28;20501;-73
2023/02/25 00:36:39;;;;;;;19.52;11.52;;;;;;;2.26;100.00;100012.13;5042224;28;20025;-74
2023/02/25 00:39:04;;;;;;;24.88;13.70;;;;;;;2.22;100.00;100009.03;5035195;28;20030;-74
2023/02/25 00:41:30;;;;;;;27.50;14.45;;;;;;;2.11;100.00;100009.13;5037164;28;20071;-73
2023/02/25 00:43:57;;;;;;;26.67;13.75;;;;;;;2.07;100.00;100002.50;5026381;28;20068;-73
2023/02/25 00:46:23;;;;;;;24.35;13.65;;;;;;;2.12;100.00;100000.69;5029936;28;20029;-74
2023/02/25 00:48:48;;;;;;;26.70;13.38;;;;;;;2.15;100.00;100004.84;5005884;28;20028;-74
2023/02/25 00:51:17;;;;;;;23.90;14.23;;;;;;;2.14;100.00;100005.91;5039023;28;20029;-74
2023/02/25 00:53:42;;;;;;;29.20;15.10;;;;;;;2.12;100.00;100008.06;5043054;28;20033;-73
2023/02/25 00:56:09;;;;;;;23.33;13.35;;;;;;;2.19;100.00;100005.97;5043324;28;20037;-74
2023/02/25 00:58:35;;;;;;;21.02;12.75;;;;;;;2.18;100.00;100005.16;5041045;28;20021;-74
2023/02/25 01:01:01;;;;;;;24.63;12.98;;;;;;;2.21;100.00;100003.81;5056395;28;20029;-74
2023/02/25 01:03:26;;;;;;;24.02;14.23;;;;;;;2.22;100.00;100002.72;5060791;28;20040;-74
2023/02/25 01:05:52;;;;;;;22.60;13.05;;;;;;;2.22;100.00;100003.56;5026808;28;20512;-74
2023/02/25 01:08:18;;;;;;;23.30;12.55;;;;;;;2.24;100.00;100003.31;5023943;28;20025;-73
2023/02/25 01:10:44;;;;;;;25.85;12.93;;;;;;;2.25;100.00;99996.75;5040009;28;20017;-73
2023/02/25 01:13:09;;;;;;;23.88;12.40;;;;;;;2.23;100.00;99990.72;5003763;28;20474;-73
2023/02/25 01:15:35;;;;;;;25.25;12.80;;;;;;;2.26;100.00;100001.16;5039905;28;20025;-74
2023/02/25 01:18:00;;;;;;;19.45;12.40;;;;;;;2.23;100.00;100002.50;5026502;28;20028;-73
2023/02/25 01:20:28;;;;;;;23.10;13.35;;;;;;;2.28;100.00;100007.19;5043037;28;20111;-74
2023/02/25 01:22:54;;;;;;;21.30;12.63;;;;;;;2.29;100.00;99999.84;5005321;28;20106;-74
2023/02/25 01:25:20;;;;;;;25.83;13.82;;;;;;;2.30;100.00;100009.69;5017379;28;20029;-73
2023/02/25 01:27:45;;;;;;;23.17;12.88;;;;;;;2.30;100.00;100004.22;5039487;28;20025;-74
2023/02/25 01:30:11;;;;;;;25.55;13.48;;;;;;;2.30;100.00;100002.31;5020018;28;20651;-74
2023/02/25 01:32:37;;;;;;;20.80;12.65;;;;;;;2.32;100.00;100005.63;5048990;28;20037;-74
2023/02/25 01:35:03;;;;;;;20.23;12.00;;;;;;;2.35;100.00;100010.59;5003702;28;20025;-74
2023/02/25 01:37:28;;;;;;;22.00;11.98;;;;;;;2.35;100.00;100018.81;5038062;28;20025;-74
2023/02/25 01:39:54;;;;;;;20.52;11.23;;;;;;;2.38;100.00;100020.22;5017408;28;20091;-74
2023/02/25 01:42:19;;;;;;;23.77;11.98;;;;;;;2.39;100.00;100017.22;5039447;28;20033;-74
2023/02/25 01:45:19;;;;;;;28.10;13.20;;;;;;;2.42;100.00;100010.41;5054069;28;20108;-74
2023/02/25 01:48:06;;;;;;;31.13;16.33;;;;;;;2.39;100.00;99999.97;5050015;28;20033;-74
2023/02/25 01:50:56;;;;;;;26.30;15.52;;;;;;;2.43;100.00;100001.94;5008090;28;20021;-74
2023/02/25 01:53:43;;;;;;;31.65;15.48;;;;;;;2.43;100.00;100010.16;5021505;28;20029;-74
2023/02/25 01:56:10;;;;;;;28.13;15.60;;;;;;;2.47;100.00;100007.75;5049780;28;20119;-74
2023/02/25 01:58:36;;;;;;;35.92;16.58;;;;;;;2.51;100.00;100003.44;5061449;28;20082;-73
2023/02/25 02:01:01;;;;;;;31.70;17.05;;;;;;;2.54;100.00;99993.88;5044488;28;20036;-73
2023/02/25 02:03:32;;;;;;;29.85;16.25;;;;;;;2.59;100.00;99996.66;5049696;28;20482;-73
2023/02/25 02:06:06;;;;;;;34.13;16.52;;;;;;;2.59;100.00;100002.16;5057486;28;20142;-74
2023/02/25 02:08:32;;;;;;;33.03;16.17;;;;;;;2.64;100.00;99994.81;5035902;28;20398;-74
2023/02/25 02:10:58;;;;;;;25.52;15.70;;;;;;;2.66;100.00;99991.84;5017753;28;20027;-74
2023/02/25 02:13:24;;;;;;;31.15;16.63;;;;;;;2.66;100.00;99991.84;5017726;28;20041;-74
2023/02/25 02:16:04;;;;;;;29.65;16.13;;;;;;;2.69;100.00;99989.41;5025857;28;20025;-73
2023/02/25 02:18:31;;;;;;;33.05;17.13;;;;;;;2.71;100.00;99994.66;5013288;28;20088;-74
2023/02/25 02:21:43;;;;;;;31.00;17.25;;;;;;;2.73;100.00;99989.75;5019350;28;20501;-74
2023/02/25 02:24:20;;;;;;;29.70;15.65;;;;;;;2.78;100.00;99987.03;5036395;28;20361;-74
2023/02/25 02:27:12;;;;;;;31.30;16.08;;;;;;;2.81;100.00;99981.03;5025932;28;20482;-74
2023/02/25 02:30:11;;;;;;;40.95;17.38;;;;;;;2.81;100.00;99980.22;5025378;28;20037;-74
2023/02/25 02:32:46;;;;;;;30.92;16.30;;;;;;;2.81;100.00;99992.00;5022902;28;20070;-74
2023/02/25 02:35:36;;;;;;;32.88;17.40;;;;;;;2.82;100.00;99990.94;5029260;28;20107;-73
2023/02/25 02:38:26;;;;;;;23.73;13.98;;;;;;;2.82;100.00;99982.72;5045910;28;20059;-74
2023/02/25 02:41:13;;;;;;;28.27;15.65;;;;;;;2.86;100.00;99980.28;5049413;28;20058;-74
2023/02/25 02:43:48;;;;;;;31.80;16.95;;;;;;;2.87;100.00;99988.28;5036185;28;20022;-74
2023/02/25 02:46:22;;;;;;;29.02;15.95;;;;;;;2.89;100.00;99983.34;5044821;28;20029;-74
2023/02/25 02:49:15;;;;;;;30.00;15.63;;;;;;;2.91;100.00;99986.66;5038393;28;20159;-74
2023/02/25 02:52:02;;;;;;;33.58;17.45;;;;;;;2.93;100.00;99993.81;5056006;28;20025;-73
2023/02/25 02:54:30;;;;;;;31.42;17.40;;;;;;;2.91;100.00;99985.84;5010496;28;20647;-74
2023/02/25 02:56:56;;;;;;;37.30;17.63;;;;;;;2.94;100.00;99989.97;5003541;28;20014;-74
2023/02/25 02:59:32;;;;;;;29.75;16.52;;;;;;;2.96;100.00;99982.34;5043214;28;20025;-74
2023/02/25 03:02:07;;;;;;;34.03;17.05;;;;;;;2.97;100.00;99989.47;5031727;28;20030;-74
2023/02/25 03:04:34;;;;;;;32.53;17.75;;;;;;;3.00;100.00;99978.78;5002938;28;20033;-74
2023/02/25 03:07:02;;;;;;;37.72;18.80;;;;;;;3.00;100.00;99978.78;5006467;28;20036;-74
2023/02/25 03:09:32;;;;;;;33.75;18.45;;;;;;;3.02;100.00;99973.88;5047968;28;20025;-74
2023/02/25 03:11:58;;;;;;;31.30;16.60;;;;;;;3.05;100.00;99978.84;5052295;28;20421;-74
2023/02/25 03:14:23;;;;;;;36.75;17.52;;;;;;;3.08;100.00;99985.75;5022535;28;20029;-74
2023/02/25 03:16:58;;;;;;;28.98;15.23;;;;;;;3.08;100.00;99989.31;5007266;28;20052;-74
2023/02/25 03:19:33;;;;;;;29.30;16.27;;;;;;;3.12;100.00;99990.47;5031733;28;20040;-74
2023/02/25 03:22:11;;;;;;;31.42;16.50;;;;;;;3.12;100.00;99986.88;5026275;28;20104;-74
2023/02/25 03:24:40;;;;;;;30.08;15.57;;;;;;;3.14;100.00;99993.75;4985814;28;20045;-74
2023/02/25 03:27:39;;;;;;;36.45;17.75;;;;;;;3.19;100.00;100003.16;5031125;28;20962;-73
2023/02/25 03:30:20;;;;;;;29.83;16.00;;;;;;;3.25;100.00;100007.59;5030310;28;20073;-74
2023/02/25 03:32:47;;;;;;;34.80;17.25;;;;;;;3.28;100.00;100005.16;5034094;28;20033;-74
2023/02/25 03:35:12;;;;;;;35.17;17.48;;;;;;;3.28;100.00;100009.84;5018160;28;20037;-73
2023/02/25 03:37:38;;;;;;;37.28;17.75;;;;;;;3.34;100.00;100011.53;5030874;28;20084;-74
2023/02/25 03:40:11;;;;;;;33.80;17.55;;;;;;;3.36;100.00;100015.69;5018160;28;20135;-74
2023/02/25 03:42:39;;;;;;;38.63;18.02;;;;;;;3.40;100.00;100009.69;5025753;28;20063;-74
2023/02/25 03:45:05;;;;;;;33.33;17.00;;;;;;;3.42;100.00;100016.56;5023754;28;20083;-74
2023/02/25 03:47:31;;;;;;;34.63;18.13;;;;;;;3.46;100.00;100022.41;5017500;28;20045;-75
2023/02/25 03:50:23;;;;;;;35.72;17.48;;;;;;;3.47;100.00;100019.38;5013772;28;20071;-74
2023/02/25 03:52:48;;;;;;;41.55;18.00;;;;;;;3.49;100.00;100019.94;5037147;28;20050;-74
2023/02/25 03:55:14;;;;;;;39.08;18.85;;;;;;;3.51;100.00;100019.66;5032672;28;20030;-74
2023/02/25 03:57:41;;;;;;;40.03;18.27;;;;;;;3.54;100.00;100021.94;5001043;28;20536;-73
2023/02/25 04:00:21;;;;;;;43.60;19.40;;;;;;;3.56;100.00;100017.81;5032122;28;20024;-74
2023/02/25 04:02:47;;;;;;;39.17;19.17;;;;;;;3.63;100.00;100019.53;5017644;28;20055;-74
2023/02/25 04:05:12;;;;;;;36.08;19.75;;;;;;;3.63;100.00;100016.78;5001136;28;20029;-74
2023/02/25 04:07:38;;;;;;;37.95;18.77;;;;;;;3.65;100.00;100007.22;5012127;28;20482;-73
2023/02/25 04:10:04;;;;;;;38.88;17.98;;;;;;;3.66;100.00;100005.28;5019999;28;20067;-74
2023/02/25 04:12:30;;;;;;;38.60;16.75;;;;;;;3.70;100.00;100009.16;5019715;28;20025;-74
2023/02/25 04:14:55;;;;;;;39.30;18.42;;;;;;;3.67;100.00;100013.25;5017486;28;20037;-73
2023/02/25 04:17:21;;;;;;;33.72;16.98;;;;;;;3.68;100.00;100009.44;5017473;28;20028;-74
2023/02/25 04:19:46;;;;;;;35.35;16.92;;;;;;;3.72;100.00;100012.47;5033869;28;20107;-74
2023/02/25 04:22:12;;;;;;;33.80;16.80;;;;;;;3.70;100.00;100014.63;5012127;28;20446;-74
2023/02/25 04:24:37;;;;;;;32.10;15.75;;;;;;;3.70;100.00;100009.16;5029588;28;20030;-74
2023/02/25 04:27:03;;;;;;;32.10;16.63;;;;;;;3.71;100.00;100006.16;5036346;28;20029;-73
2023/02/25 04:29:28;;;;;;;35.45;15.80;;;;;;;3.71;100.00;100008.91;5021209;28;20496;-74
2023/02/25 04:31:54;;;;;;;29.90;15.57;;;;;;;3.73;100.00;100011.38;5017005;28;20033;-73
2023/02/25 04:34:20;;;;;;;37.40;15.93;;;;;;;3.73;100.00;100014.97;5030366;28;20029;-73
2023/02/25 04:36:45;;;;;;;31.25;15.52;;;;;;;3.73;100.00;100011.38;5017055;28;20378;-74
2023/02/25 04:39:11;;;;;;;35.67;16.02;;;;;;;3.76;100.00;100008.09;5034146;28;20037;-73
2023/02/25 04:41:37;;;;;;;29.63;14.35;;;;;;;3.75;100.00;100020.19;5016738;28;20452;-74
2023/02/25 04:44:03;;;;;;;29.98;13.85;;;;;;;3.78;100.00;100017.75;5015738;28;20028;-74
2023/02/25 04:46:29;;;;;;;26.50;12.45;;;;;;;3.80;100.00;100025.72;5020506;28;20034;-74
2023/02/25 04:48:54;;;;;;;30.33;12.82;;;;;;;3.80;100.00;100015.56;5000535;28;20036;-74
2023/02/25 04:51:20;;;;;;;28.20;13.13;;;;;;;3.79;100.00;100007.59;5009826;28;20040;-74
2023/02/25 04:53:45;;;;;;;26.85;12.95;;;;;;;3.81;100.00;100008.97;5016655;28;20459;-74
2023/02/25 04:56:11;;;;;;;26.08;12.23;;;;;;;3.80;100.00;100007.31;5007528;28;20025;-74
2023/02/25 04:58:36;;;;;;;26.95;11.38;;;;;;;3.84;100.00;100009.53;5039235;28;20052;-74
2023/02/25 05:01:04;;;;;;;25.35;9.40;;;;;;;3.85;100.00;100011.22;5028077;28;20152;-74
2023/02/25 05:03:29;;;;;;;23.63;9.35;;;;;;;3.83;100.00;100014.22;4988087;28;20025;-74
2023/02/25 05:05:55;;;;;;;23.38;8.95;;;;;;;3.84;100.00;100015.88;5037013;28;20720;-74
2023/02/25 05:08:21;;;;;;;17.50;9.05;;;;;;;3.84;100.00;100026.84;4987933;28;20374;-73
2023/02/25 05:10:46;;;;;;;20.85;8.02;;;;;;;3.87;100.00;100022.75;5045091;28;20029;-74
2023/02/25 05:13:12;;;;;;;21.83;8.25;;;;;;;3.90;100.00;100024.97;5005265;28;20047;-74
2023/02/25 05:15:37;;;;;;;22.42;7.95;;;;;;;3.86;100.00;100024.69;5036780;28;20029;-74
2023/02/25 05:18:03;;;;;;;15.68;7.13;;;;;;;3.87;100.00;100015.34;5036762;28;20466;-74
2023/02/25 05:20:28;;;;;;;20.92;7.30;;;;;;;3.89;100.00;100024.16;5003853;28;20025;-74
2023/02/25 05:22:54;;;;;;;18.95;6.95;;;;;;;3.90;100.00;100024.97;5020779;28;20033;-74
2023/02/25 05:25:19;;;;;;;23.02;7.30;;;;;;;3.91;100.00;100021.97;5013198;28;20037;-74
2023/02/25 05:27:45;;;;;;;16.10;6.70;;;;;;;3.91;100.00;100021.16;5003476;28;20033;-74
2023/02/25 05:30:11;;;;;;;17.67;6.22;;;;;;;3.90;100.00;100023.09;5003617;28;20038;-74
2023/02/25 05:32:37;;;;;;;20.05;6.95;;;;;;;3.91;100.00;100024.72;5008306;28;20393;-73
2023/02/25 05:35:03;;;;;;;17.88;7.43;;;;;;;3.94;100.00;100032.44;5020368;28;20045;-74
2023/02/25 05:37:30;;;;;;;19.00;6.78;;;;;;;3.91;100.00;100027.47;4987711;28;20061;-73
2023/02/25 05:39:57;;;;;;;16.63;6.60;;;;;;;3.92;100.00;100031.03;5015487;28;20139;-74
2023/02/25 05:42:23;;;;;;;15.60;6.43;;;;;;;3.95;100.00;100022.28;5041465;28;20044;-74
2023/02/25 05:44:48;;;;;;;23.50;6.82;;;;;;;3.94;100.00;100026.13;5045650;28;20516;-74
2023/02/25 05:47:14;;;;;;;15.82;6.40;;;;;;;3.95;100.00;100027.78;5032843;28;20033;-74
2023/02/25 05:49:41;;;;;;;16.02;6.18;;;;;;;3.93;100.00;100030.81;4987241;28;20053;-74
2023/02/25 05:52:07;;;;;;;14.52;6.05;;;;;;;3.96;100.00;100029.44;4987297;28;20036;-74
2023/02/25 05:54:32;;;;;;;15.93;5.63;;;;;;;3.94;100.00;100032.44;5021150;28;20393;-73
2023/02/25 05:56:58;;;;;;;15.18;5.75;;;;;;;3.94;100.00;100037.13;5039212;28;20041;-74
2023/02/25 05:59:23;;;;;;;14.00;5.53;;;;;;;4.00;100.00;100036.06;5053499;28;20082;-74
2023/02/25 06:01:49;;;;;;;16.77;6.60;;;;;;;3.98;100.00;100040.97;5033736;28;20045;-74
2023/02/25 06:04:14;;;;;;;15.75;7.18;;;;;;;3.93;100.00;100030.81;5036092;28;20391;-74
2023/02/25 06:06:40;;;;;;;18.35;6.68;;;;;;;3.96;100.00;100048.69;5038341;28;20030;-74
2023/02/25 06:09:08;;;;;;;18.85;7.55;;;;;;;3.95;100.00;100033.28;5011635;28;20038;-74
2023/02/25 06:11:33;;;;;;;17.45;6.68;;;;;;;3.96;100.00;100049.50;5050424;28;20035;-74
2023/02/25 06:13:59;;;;;;;24.10;7.60;;;;;;;3.98;100.00;100054.72;5019167;28;20650;-73
2023/02/25 06:16:29;;;;;;;21.70;8.35;;;;;;;3.96;100.00;100054.19;5032662;28;20033;-74
2023/02/25 06:18:55;;;;;;;18.13;7.43;;;;;;;3.94;100.00;100053.59;5003691;28;20087;-74
2023/02/25 06:21:20;;;;;;;24.77;7.88;;;;;;;3.95;100.00;100055.25;5011546;28;20025;-74
2023/02/25 06:23:48;;;;;;;19.90;7.75;;;;;;;3.97;100.00;100055.81;5025632;28;20032;-74
2023/02/25 06:26:14;;;;;;;19.23;7.65;;;;;;;3.95;100.00;100055.25;5035119;28;20060;-74
2023/02/25 06:28:40;;;;;;;19.30;7.35;;;;;;;3.93;100.00;100051.94;5019551;28;20033;-74
2023/02/25 06:31:10;;;;;;;24.00;8.55;;;;;;;3.94;100.00;100054.44;5015008;28;20025;-74
2023/02/25 06:33:36;;;;;;;22.60;7.70;;;;;;;3.96;100.00;100062.41;5048347;28;20465;-74
2023/02/25 06:36:02;;;;;;;23.88;8.05;;;;;;;3.95;100.00;100060.75;5038705;28;20029;-74
2023/02/25 06:38:27;;;;;;;19.65;8.00;;;;;;;3.98;100.00;100068.47;5002497;28;20044;-73
2023/02/25 06:40:53;;;;;;;16.17;6.85;;;;;;;3.98;100.00;100062.97;5018142;28;20045;-74
2023/02/25 06:43:18;;;;;;;17.02;6.32;;;;;;;3.95;100.00;100063.50;5018632;28;20099;-74
2023/02/25 06:45:44;;;;;;;16.00;6.53;;;;;;;3.95;100.00;100067.06;5038156;28;20028;-73
2023/02/25 06:48:09;;;;;;;16.55;6.55;;;;;;;3.94;100.00;100067.34;5009014;28;20026;-74
2023/02/25 06:50:37;;;;;;;16.45;7.00;;;;;;;3.96;100.00;100062.41;5002224;28;20029;-74
2023/02/25 06:53:02;;;;;;;16.42;6.28;;;;;;;3.93;100.00;100065.69;5023897;28;20556;-74
2023/02/25 06:55:28;;;;;;;17.15;6.25;;;;;;;3.92;100.00;100070.34;5018665;28;20025;-74
2023/02/25 06:57:53;;;;;;;14.10;6.15;;;;;;;3.94;100.00;100067.34;5047791;28;20437;-74
2023/02/25 07:00:19;;;;;;;17.40;6.70;;;;;;;3.92;100.00;100073.06;5014936;28;20109;-74
2023/02/25 07:02:45;;;;;;;15.48;5.80;;;;;;;3.92;100.00;100073.06;4996715;28;20522;-74
2023/02/25 07:05:10;;;;;;;16.58;6.28;;;;;;;3.92;100.00;100075.00;5035010;28;20179;-74
2023/02/25 07:07:36;;;;;;;13.65;5.90;;;;;;;3.92;100.00;100080.50;5035250;28;20091;-74
2023/02/25 07:10:01;;;;;;;16.25;6.55;;;;;;;3.93;100.00;100084.94;5020581;28;20107;-74
2023/02/25 07:12:27;;;;;;;19.38;6.43;;;;;;;3.89;100.00;100090.09;5018377;28;20025;-74
2023/02/25 07:14:52;;;;;;;14.85;5.97;;;;;;;3.90;100.00;100085.41;5030689;28;20037;-73
2023/02/25 07:17:18;;;;;;;15.05;5.85;;;;;;;3.90;100.00;100096.41;5048452;28;20017;-74
2023/02/25 07:19:44;;;;;;;15.73;5.97;;;;;;;3.90;100.00;100096.41;5025410;28;20032;-74
2023/02/25 07:22:14;;;;;;;16.08;5.18;;;;;;;3.90;100.00;100096.41;5035243;28;20022;-74
2023/02/25 07:24:39;;;;;;;17.80;5.55;;;;;;;3.91;100.00;100104.41;5046354;28;20037;-74
2023/02/25 07:27:05;;;;;;;14.73;5.05;;;;;;;3.91;100.00;100098.91;5017714;28;20032;-74
2023/02/25 07:29:30;;;;;;;12.75;5.35;;;;;;;3.91;100.00;100100.84;5006651;28;20390;-74
2023/02/25 07:31:56;;;;;;;18.10;5.53;;;;;;;3.89;100.00;100103.81;5020705;28;20040;-73
2023/02/25 07:34:21;;;;;;;18.73;5.13;;;;;;;3.85;100.00;100108.19;5036921;28;20172;-74
2023/02/25 07:36:47;;;;;;;16.70;4.60;;;;;;;3.87;100.00;100105.16;5001658;28;20041;-74
2023/02/25 07:39:12;;;;;;;17.10;5.60;;;;;;;3.90;100.00;100104.66;5005286;28;20048;-74
2023/02/25 07:41:38;;;;;;;16.77;4.85;;;;;;;3.90;100.00;100118.38;5010016;28;20061;-74
2023/02/25 07:44:04;;;;;;;12.18;4.90;;;;;;;3.91;100.00;100122.81;5020249;28;20029;-74
2023/02/25 07:46:29;;;;;;;20.83;5.50;;;;;;;3.91;100.00;100117.31;5008735;28;20025;-74
2023/02/25 07:48:55;;;;;;;14.77;4.85;;;;;;;3.93;100.00;100115.16;5014283;28;20116;-74
2023/02/25 07:51:22;;;;;;;21.58;4.78;;;;;;;3.93;100.00;100115.97;5014019;28;20025;-74
2023/02/25 07:53:48;;;;;;;13.98;4.93;;;;;;;3.97;100.00;100116.28;5029751;28;20029;-73
2023/02/25 07:56:13;;;;;;;15.30;4.88;;;;;;;3.96;100.00;100125.63;5000988;28;20504;-74
2023/02/25 07:58:39;;;;;;;16.60;4.82;;;;;;;4.01;100.00;100126.50;5020032;28;20499;-74
2023/02/25 08:01:11;;;;;;;11.98;4.72;;;;;;;4.04;100.00;100125.16;5053935;28;20029;-74
2023/02/25 08:03:37;;;;;;;12.48;4.43;;;;;;;4.02;100.00;100127.31;5017756;28;20041;-74
2023/02/25 08:06:07;;;;;;;13.25;4.38;;;;;;;4.07;100.00;100130.13;5001573;28;20033;-74
2023/02/25 08:08:36;;;;;;;10.05;4.13;;;;;;;4.03;100.00;100140.78;5030099;28;20034;-73
2023/02/25 08:11:11;;;;;;;13.10;4.80;;;;;;;4.09;100.00;100141.66;5011281;28;20021;-74
2023/02/25 08:13:37;;;;;;;11.70;4.68;;;;;;;4.10;100.00;100143.34;5028978;28;20036;-74
2023/02/25 08:16:07;;;;;;;13.05;4.13;;;;;;;4.09;100.00;100144.41;5020091;28;20094;-74
2023/02/25 08:18:32;;;;;;;13.15;3.95;;;;;;;4.13;100.00;100137.31;5010903;28;20398;-74
2023/02/25 08:20:58;;;;;;;14.05;4.82;;;;;;;4.14;100.00;100143.63;5017454;28;20029;-74
2023/02/25 08:23:24;;;;;;;13.52;4.60;;;;;;;4.17;100.00;100141.19;5017170;28;20496;-74
2023/02/25 08:25:54;;;;;;;12.75;4.13;;;;;;;4.19;100.00;100144.50;5033807;28;20034;-74
2023/02/25 08:28:21;;;;;;;16.42;4.72;;;;;;;4.21;100.00;100147.84;5008318;28;20033;-74
2023/02/25 08:30:47;;;;;;;17.25;4.57;;;;;;;4.25;100.00;100153.63;5002033;28;20083;-74
2023/02/25 08:33:12;;;;;;;13.45;3.92;;;;;;;4.30;100.00;100142.69;5030184;28;20036;-73
2023/02/25 08:35:38;;;;;;;12.32;3.80;;;;;;;4.38;100.00;100153.22;5007827;28;20017;-74
2023/02/25 08:38:04;;;;;;;12.90;4.45;;;;;;;4.45;100.00;100161.22;5004569;28;20034;-74
2023/02/25 08:40:30;;;;;;;13.55;4.53;;;;;;;4.49;100.00;100154.13;5040257;28;20442;-74
2023/02/25 08:42:56;;;;;;;11.57;4.75;;;;;;;4.53;100.00;100158.00;5030420;28;20032;-74
2023/02/25 08:45:22;;;;;;;16.48;4.57;;;;;;;4.57;100.00;100163.78;5027301;28;20021;-74
2023/02/25 08:47:47;;;;;;;15.48;4.72;;;;;;;4.67;100.00;100150.94;5031056;28;20040;-74
2023/02/25 08:50:12;;;;;;;12.02;4.18;;;;;;;4.79;100.00;100153.53;4988133;28;20038;-74
2023/02/25 08:52:38;;;;;;;11.10;4.00;;;;;;;4.91;100.00;100145.06;5006707;28;20029;-74
2023/02/25 08:55:04;;;;;;;10.88;4.22;;;;;;;5.03;100.00;100148.44;5021180;28;20433;-74
2023/02/25 08:57:30;;;;;;;11.77;3.92;;;;;;;5.12;100.00;100155.09;5020556;28;20028;-74
2023/02/25 08:59:55;;;;;;;14.40;3.83;;;;;;;5.22;100.00;100148.84;5017147;28;20021;-74
2023/02/25 09:02:20;;;;;;;18.05;4.28;;;;;;;5.29;100.00;100152.19;5037560;28;20635;-74
2023/02/25 09:04:46;;;;;;;13.40;3.85;;;;;;;5.42;100.00;100144.53;5037160;28;20405;-74
2023/02/25 09:07:15;;;;;;;16.08;4.35;;;;;;;5.43;100.00;100143.41;5048388;28;20227;-75
2023/02/25 09:09:41;;;;;;;11.63;3.75;;;;;;;5.50;100.00;100144.00;5004266;28;20036;-75
2023/02/25 09:12:06;;;;;;;16.00;3.67;;;;;;;5.59;100.00;100153.41;5019631;28;20088;-75
2023/02/25 09:14:33;;;;;;;13.70;3.75;;;;;;;5.56;100.00;100160.28;5033622;28;20030;-74
2023/02/25 09:17:02;;;;;;;23.55;4.18;;;;;;;5.75;100.00;100159.78;5037016;28;20025;-77
2023/02/25 09:19:27;;;;;;;19.33;4.28;;;;;;;5.87;100.00;100157.63;5020583;28;20036;-75
2023/02/25 09:21:53;;;;;;;37.65;4.57;;;;;;;5.96;100.00;100161.56;5020384;28;20033;-74
2023/02/25 09:24:18;;;;;;;30.50;4.65;;;;;;;5.94;100.00;100151.91;5019183;28;20032;-74
2023/02/25 09:26:44;;;;;;;19.80;4.43;;;;;;;5.95;100.00;100148.84;5049609;28;20477;-74
2023/02/25 09:29:09;;;;;;;14.13;4.15;;;;;;;5.99;100.00;100147.22;5021480;28;20041;-74
2023/02/25 09:31:36;;;;;;;9.88;3.30;;;;;;;6.11;100.00;100151.66;5023172;28;20025;-74
2023/02/25 09:34:03;;;;;;;9.82;3.38;;;;;;;6.04;100.00;100158.25;5007907;28;20037;-74
2023/02/25 09:36:28;;;;;;;13.73;3.65;;;;;;;6.09;100.00;100160.19;5036694;28;20115;-73
2023/02/25 09:38:55;;;;;;;13.57;4.38;;;;;;;6.13;100.00;100163.22;5023807;28;20528;-76
2023/02/25 09:41:39;;;;;;;11.15;3.47;;;;;;;5.98;100.00;100159.34;5036176;28;20121;-76
2023/02/25 09:44:10;;;;;;;17.45;4.07;;;;;;;6.10;100.00;100167.38;5034941;28;20108;-75
2023/02/25 09:46:40;;;;;;;14.32;3.88;;;;;;;6.00;100.00;100162.66;5033855;28;20029;-75
2023/02/25 09:49:11;;;;;;;9.15;3.08;;;;;;;6.03;100.00;100156.59;5056288;28;20472;-76
2023/02/25 09:51:39;;;;;;;13.02;3.55;;;;;;;6.04;100.00;100157.41;5040936;28;20033;-76
2023/02/25 09:54:17;;;;;;;11.80;3.10;;;;;;;6.14;100.00;100162.13;5033962;28;20059;-76
2023/02/25 09:56:42;;;;;;;10.43;2.95;;;;;;;6.23;100.00;100160.47;5020186;28;20080;-76
2023/02/25 09:59:14;;;;;;;11.60;2.72;;;;;;;6.29;100.00;100151.09;5030461;28;20029;-75
2023/02/25 10:01:56;;;;;;;13.23;2.85;;;;;;;6.37;100.00;100161.59;5034631;28;20052;-75
2023/02/25 10:04:27;;;;;;;9.88;2.45;;;;;;;6.49;100.00;100159.41;5016068;28;20024;-75
2023/02/25 10:06:54;;;;;;;11.88;2.90;;;;;;;6.51;100.00;100150.84;5048956;28;20044;-75
2023/02/25 10:09:45;;;;;;;10.32;2.80;;;;;;;6.56;100.00;100155.53;5016950;28;20034;-75
2023/02/25 10:12:18;;;;;;;6.25;2.10;;;;;;;6.63;100.00;100151.41;5055446;28;20036;-76
2023/02/25 10:14:51;;;;;;;12.50;2.88;;;;;;;6.60;100.00;100149.22;5032700;28;20445;-75
2023/02/25 10:17:42;;;;;;;11.18;2.67;;;;;;;6.77;100.00;100156.34;5030511;28;20029;-75
2023/02/25 10:20:32;;;;;;;10.20;2.38;;;;;;;6.95;100.00;100150.25;5037584;28;20037;-75
2023/02/25 10:23:26;;;;;;;11.45;2.63;;;;;;;7.04;100.00;100156.88;5035818;28;20037;-75
2023/02/25 10:26:06;;;;;;;12.43;2.35;;;;;;;7.18;100.00;100154.34;5035274;28;20057;-75
2023/02/25 10:28:31;;;;;;;9.95;2.08;;;;;;;7.25;100.00;100146.59;5026271;28;20688;-75
2023/02/25 10:31:07;;;;;;;7.32;2.22;;;;;;;7.17;100.00;100152.72;5027877;28;20108;-75
2023/02/25 10:33:35;;;;;;;6.60;1.65;;;;;;;7.10;100.00;100149.41;5043204;28;20439;-75
2023/02/25 10:36:31;;;;;;;9.15;2.20;;;;;;;7.14;100.00;100151.31;5017336;28;20029;-76
2023/02/25 10:38:57;;;;;;;9.73;1.92;;;;;;;7.27;100.00;100157.34;5033374;28;20112;-75
2023/02/25 10:41:58;;;;;;;10.63;1.88;;;;;;;7.36;100.00;100162.03;5012124;28;20576;-75
2023/02/25 10:44:23;;;;;;;5.93;2.00;;;;;;;7.38;100.00;100157.06;5036135;28;20045;-76
2023/02/25 10:46:53;;;;;;;8.82;1.95;;;;;;;7.53;100.00;100155.34;5018470;28;20026;-75
2023/02/25 10:49:21;;;;;;;9.35;1.90;;;;;;;7.57;100.00;100167.47;5032082;28;20031;-75
2023/02/25 10:52:09;;;;;;;11.00;2.10;;;;;;;7.63;100.00;100151.72;5041680;28;20033;-75
2023/02/25 10:54:48;;;;;;;10.30;2.20;;;;;;;7.74;100.00;100153.31;5024491;28;20280;-75
2023/02/25 10:57:25;;;;;;;14.48;2.40;;;;;;;7.76;100.00;100143.63;5024256;28;20030;-75
2023/02/25 11:00:14;;;;;;;8.45;2.03;;;;;;;7.73;100.00;100152.50;5015359;28;20384;-75
2023/02/25 11:02:40;;;;;;;11.52;2.38;;;;;;;7.80;100.00;100144.72;5032416;28;20068;-75
2023/02/25 11:05:06;;;;;;;8.55;1.90;;;;;;;7.78;100.00;100152.47;5038299;28;20025;-75
2023/02/25 11:07:37;;;;;;;8.75;1.90;;;;;;;7.82;100.00;100148.00;5009961;28;20042;-75
2023/02/25 11:10:18;;;;;;;7.93;1.80;;;;;;;7.79;100.00;100143.06;5037163;28;20421;-76
2023/02/25 11:12:48;;;;;;;12.93;2.30;;;;;;;7.75;100.00;100141.16;5023063;28;20164;-70
2023/02/25 11:15:29;;;;;;;11.45;2.45;;;;;;;7.63;100.00;100149.75;5034572;28;20025;-79
2023/02/25 11:17:59;;;;;;;10.75;2.00;;;;;;;7.46;100.00;100149.28;5032422;28;20522;-77
2023/02/25 11:20:26;;;;;;;12.52;3.20;;;;;;;7.29;100.00;100150.44;5030114;28;20059;-77
2023/02/25 11:22:52;;;;;;;9.35;2.80;;;;;;;7.20;100.00;100149.38;5054441;28;20033;-77